sensor_id;sensor_type;location;lat;lon;timestamp;temperature;humidity
10512;DHT22;5304;48.604;2.096;2022-08-19T00:02:03;18.60;99.90
10512;DHT22;5304;48.604;2.096;2022-08-19T00:04:48;18.50;99.90
10512;DHT22;5304;48.604;2.096;2022-08-19T00:07:38;18.40;99.90
10512;DHT22;5304;48.604;2.096;2022-08-19T00:10:23;18.40;99.90
10512;DHT22;5304;48.604;2.096;2022-08-19T00:13:08;18.40;99.90
10512;DHT22;5304;48.604;2.096;2022-08-19T00:15:54;18.30;99.90
10512;DHT22;5304;48.604;2.096;2022-08-19T00:18:38;18.20;99.90
10512;DHT22;5304;48.604;2.096;2022-08-19T00:21:24;18.10;99.90
10512;DHT22;5304;48.604;2.096;2022-08-19T00:24:13;18.00;99.90
10512;DHT22;5304;48.604;2.096;2022-08-19T00:26:58;17.90;99.90
10512;DHT22;5304;48.604;2.096;2022-08-19T00:29:43;17.90;99.90
10512;DHT22;5304;48.604;2.096;2022-08-19T00:32:27;17.80;99.90
10512;DHT22;5304;48.604;2.096;2022-08-19T00:35:12;17.70;99.90
10512;DHT22;5304;48.604;2.096;2022-08-19T00:37:56;17.70;99.90
10512;DHT22;5304;48.604;2.096;2022-08-19T00:40:43;17.60;99.90
10512;DHT22;5304;48.604;2.096;2022-08-19T00:43:30;17.50;99.90
10512;DHT22;5304;48.604;2.096;2022-08-19T00:46:14;17.50;99.90
10512;DHT22;5304;48.604;2.096;2022-08-19T00:49:00;17.50;99.90
10512;DHT22;5304;48.604;2.096;2022-08-19T00:51:50;17.40;99.90
10512;DHT22;5304;48.604;2.096;2022-08-19T00:54:37;17.40;99.90
10512;DHT22;5304;48.604;2.096;2022-08-19T00:57:35;17.40;99.90
10512;DHT22;5304;48.604;2.096;2022-08-19T01:00:22;17.60;99.90
10512;DHT22;5304;48.604;2.096;2022-08-19T01:03:10;17.50;99.90
10512;DHT22;5304;48.604;2.096;2022-08-19T01:05:55;17.40;99.90
10512;DHT22;5304;48.604;2.096;2022-08-19T01:08:40;17.30;99.90
10512;DHT22;5304;48.604;2.096;2022-08-19T01:11:27;17.20;99.90
10512;DHT22;5304;48.604;2.096;2022-08-19T01:14:13;17.10;99.90
10512;DHT22;5304;48.604;2.096;2022-08-19T01:16:58;17.10;99.90
10512;DHT22;5304;48.604;2.096;2022-08-19T01:19:45;17.00;99.90
10512;DHT22;5304;48.604;2.096;2022-08-19T01:25:39;16.90;99.90
10512;DHT22;5304;48.604;2.096;2022-08-19T01:28:27;16.80;99.90
10512;DHT22;5304;48.604;2.096;2022-08-19T01:31:23;17.00;99.90
10512;DHT22;5304;48.604;2.096;2022-08-19T01:34:08;17.10;99.90
10512;DHT22;5304;48.604;2.096;2022-08-19T01:36:52;17.20;99.90
10512;DHT22;5304;48.604;2.096;2022-08-19T01:39:39;17.20;99.90
10512;DHT22;5304;48.604;2.096;2022-08-19T01:42:24;17.00;99.90
10512;DHT22;5304;48.604;2.096;2022-08-19T01:45:09;16.90;99.90
10512;DHT22;5304;48.604;2.096;2022-08-19T01:47:54;16.80;99.90
10512;DHT22;5304;48.604;2.096;2022-08-19T01:50:39;16.70;99.90
10512;DHT22;5304;48.604;2.096;2022-08-19T01:53:24;16.60;99.90
10512;DHT22;5304;48.604;2.096;2022-08-19T01:56:08;16.70;99.90
10512;DHT22;5304;48.604;2.096;2022-08-19T01:58:58;16.60;99.90
10512;DHT22;5304;48.604;2.096;2022-08-19T02:01:43;16.60;99.90
10512;DHT22;5304;48.604;2.096;2022-08-19T02:04:28;16.60;99.90
10512;DHT22;5304;48.604;2.096;2022-08-19T02:07:12;16.50;99.90
10512;DHT22;5304;48.604;2.096;2022-08-19T02:09:57;16.50;99.90
10512;DHT22;5304;48.604;2.096;2022-08-19T02:12:41;16.50;99.90
10512;DHT22;5304;48.604;2.096;2022-08-19T02:15:26;16.60;99.90
10512;DHT22;5304;48.604;2.096;2022-08-19T02:18:11;16.60;99.90
10512;DHT22;5304;48.604;2.096;2022-08-19T02:20:56;16.50;99.90
10512;DHT22;5304;48.604;2.096;2022-08-19T02:23:41;16.60;99.90
10512;DHT22;5304;48.604;2.096;2022-08-19T02:26:26;16.50;99.90
10512;DHT22;5304;48.604;2.096;2022-08-19T02:29:10;16.50;99.90
10512;DHT22;5304;48.604;2.096;2022-08-19T02:31:55;16.50;99.90
10512;DHT22;5304;48.604;2.096;2022-08-19T02:34:40;16.50;99.90
10512;DHT22;5304;48.604;2.096;2022-08-19T02:37:24;16.50;99.90
10512;DHT22;5304;48.604;2.096;2022-08-19T02:40:32;16.50;99.90
10512;DHT22;5304;48.604;2.096;2022-08-19T02:43:19;16.60;99.90
10512;DHT22;5304;48.604;2.096;2022-08-19T02:46:19;16.60;99.90
10512;DHT22;5304;48.604;2.096;2022-08-19T02:49:07;16.70;99.90
10512;DHT22;5304;48.604;2.096;2022-08-19T02:51:51;16.60;99.90
10512;DHT22;5304;48.604;2.096;2022-08-19T02:54:36;16.70;99.90
10512;DHT22;5304;48.604;2.096;2022-08-19T02:57:21;16.60;99.90
10512;DHT22;5304;48.604;2.096;2022-08-19T03:00:06;16.60;99.90
10512;DHT22;5304;48.604;2.096;2022-08-19T03:02:53;16.60;99.90
10512;DHT22;5304;48.604;2.096;2022-08-19T03:05:38;16.60;99.90
10512;DHT22;5304;48.604;2.096;2022-08-19T03:08:24;16.60;99.90
10512;DHT22;5304;48.604;2.096;2022-08-19T03:11:22;16.60;99.90
10512;DHT22;5304;48.604;2.096;2022-08-19T03:14:08;16.60;99.90
10512;DHT22;5304;48.604;2.096;2022-08-19T03:16:53;16.60;99.90
10512;DHT22;5304;48.604;2.096;2022-08-19T03:19:37;16.60;99.90
10512;DHT22;5304;48.604;2.096;2022-08-19T03:22:23;16.70;99.90
10512;DHT22;5304;48.604;2.096;2022-08-19T03:25:07;16.70;99.90
10512;DHT22;5304;48.604;2.096;2022-08-19T03:27:51;16.80;99.90
10512;DHT22;5304;48.604;2.096;2022-08-19T03:30:36;16.90;99.90
10512;DHT22;5304;48.604;2.096;2022-08-19T03:33:20;16.90;99.90
10512;DHT22;5304;48.604;2.096;2022-08-19T03:36:17;16.90;99.90
10512;DHT22;5304;48.604;2.096;2022-08-19T03:39:02;17.00;99.90
10512;DHT22;5304;48.604;2.096;2022-08-19T03:41:47;17.00;99.90
10512;DHT22;5304;48.604;2.096;2022-08-19T03:44:34;17.00;99.90
10512;DHT22;5304;48.604;2.096;2022-08-19T03:47:20;17.00;99.90
10512;DHT22;5304;48.604;2.096;2022-08-19T03:50:05;17.10;99.90
10512;DHT22;5304;48.604;2.096;2022-08-19T03:52:50;17.10;99.90
10512;DHT22;5304;48.604;2.096;2022-08-19T03:55:40;17.10;99.90
10512;DHT22;5304;48.604;2.096;2022-08-19T03:58:24;17.10;99.90
10512;DHT22;5304;48.604;2.096;2022-08-19T04:01:11;17.20;99.90
10512;DHT22;5304;48.604;2.096;2022-08-19T04:03:57;17.20;99.90
10512;DHT22;5304;48.604;2.096;2022-08-19T04:06:43;17.20;99.90
10512;DHT22;5304;48.604;2.096;2022-08-19T04:09:28;17.20;99.90
10512;DHT22;5304;48.604;2.096;2022-08-19T04:12:12;17.20;99.90
10512;DHT22;5304;48.604;2.096;2022-08-19T04:14:57;17.20;99.90
10512;DHT22;5304;48.604;2.096;2022-08-19T04:17:42;17.20;99.90
10512;DHT22;5304;48.604;2.096;2022-08-19T04:20:26;17.20;99.90
10512;DHT22;5304;48.604;2.096;2022-08-19T04:23:12;17.20;99.90
10512;DHT22;5304;48.604;2.096;2022-08-19T04:25:57;17.20;99.90
10512;DHT22;5304;48.604;2.096;2022-08-19T04:28:42;17.30;99.90
10512;DHT22;5304;48.604;2.096;2022-08-19T04:31:30;17.20;99.90
10512;DHT22;5304;48.604;2.096;2022-08-19T04:34:17;17.30;99.90
10512;DHT22;5304;48.604;2.096;2022-08-19T04:37:05;17.30;99.90
10512;DHT22;5304;48.604;2.096;2022-08-19T04:39:55;17.30;99.90
10512;DHT22;5304;48.604;2.096;2022-08-19T04:42:59;17.40;99.90
10512;DHT22;5304;48.604;2.096;2022-08-19T04:45:45;17.50;99.90
10512;DHT22;5304;48.604;2.096;2022-08-19T04:48:30;17.50;99.90
10512;DHT22;5304;48.604;2.096;2022-08-19T04:51:14;17.50;99.90
10512;DHT22;5304;48.604;2.096;2022-08-19T04:54:00;17.60;99.90
10512;DHT22;5304;48.604;2.096;2022-08-19T04:56:45;17.60;99.90
10512;DHT22;5304;48.604;2.096;2022-08-19T04:59:29;17.60;99.90
10512;DHT22;5304;48.604;2.096;2022-08-19T05:02:13;17.60;99.90
10512;DHT22;5304;48.604;2.096;2022-08-19T05:04:58;17.60;99.90
10512;DHT22;5304;48.604;2.096;2022-08-19T05:07:46;17.60;99.90
10512;DHT22;5304;48.604;2.096;2022-08-19T05:10:30;17.60;99.90
10512;DHT22;5304;48.604;2.096;2022-08-19T05:13:16;17.60;99.90
10512;DHT22;5304;48.604;2.096;2022-08-19T05:16:01;17.70;99.90
10512;DHT22;5304;48.604;2.096;2022-08-19T05:18:46;17.70;99.90
10512;DHT22;5304;48.604;2.096;2022-08-19T05:21:50;17.70;99.90
10512;DHT22;5304;48.604;2.096;2022-08-19T05:24:54;17.70;99.90
10512;DHT22;5304;48.604;2.096;2022-08-19T05:27:39;17.90;99.90
10512;DHT22;5304;48.604;2.096;2022-08-19T05:30:23;17.90;99.90
10512;DHT22;5304;48.604;2.096;2022-08-19T05:33:08;17.90;99.90
10512;DHT22;5304;48.604;2.096;2022-08-19T05:35:54;18.00;99.90
10512;DHT22;5304;48.604;2.096;2022-08-19T05:38:40;18.10;99.90
10512;DHT22;5304;48.604;2.096;2022-08-19T05:41:24;18.10;99.90
10512;DHT22;5304;48.604;2.096;2022-08-19T05:44:14;18.00;99.90
10512;DHT22;5304;48.604;2.096;2022-08-19T05:47:00;17.90;99.90
10512;DHT22;5304;48.604;2.096;2022-08-19T05:49:47;17.90;99.90
10512;DHT22;5304;48.604;2.096;2022-08-19T05:52:32;18.00;99.90
10512;DHT22;5304;48.604;2.096;2022-08-19T05:55:16;18.10;99.90
10512;DHT22;5304;48.604;2.096;2022-08-19T05:58:00;18.10;99.90
10512;DHT22;5304;48.604;2.096;2022-08-19T06:00:45;18.00;99.90
10512;DHT22;5304;48.604;2.096;2022-08-19T06:03:34;18.00;99.90
10512;DHT22;5304;48.604;2.096;2022-08-19T06:06:21;18.10;99.90
10512;DHT22;5304;48.604;2.096;2022-08-19T06:09:07;18.20;99.90
10512;DHT22;5304;48.604;2.096;2022-08-19T06:11:55;18.30;99.90
10512;DHT22;5304;48.604;2.096;2022-08-19T06:14:41;18.40;99.90
10512;DHT22;5304;48.604;2.096;2022-08-19T06:17:26;18.50;99.90
10512;DHT22;5304;48.604;2.096;2022-08-19T06:20:14;18.60;99.90
10512;DHT22;5304;48.604;2.096;2022-08-19T06:22:59;18.70;99.90
10512;DHT22;5304;48.604;2.096;2022-08-19T06:39:22;18.90;99.90
10512;DHT22;5304;48.604;2.096;2022-08-19T06:42:07;19.40;99.90
10512;DHT22;5304;48.604;2.096;2022-08-19T06:44:55;19.40;99.90
10512;DHT22;5304;48.604;2.096;2022-08-19T06:47:39;19.40;99.90
10512;DHT22;5304;48.604;2.096;2022-08-19T06:50:24;19.40;99.90
10512;DHT22;5304;48.604;2.096;2022-08-19T06:53:08;19.40;99.90
10512;DHT22;5304;48.604;2.096;2022-08-19T06:55:53;19.30;99.90
10512;DHT22;5304;48.604;2.096;2022-08-19T06:58:44;19.30;99.90
10512;DHT22;5304;48.604;2.096;2022-08-19T07:01:28;19.40;99.90
10512;DHT22;5304;48.604;2.096;2022-08-19T07:04:15;19.30;99.90
10512;DHT22;5304;48.604;2.096;2022-08-19T07:07:10;19.40;99.90
10512;DHT22;5304;48.604;2.096;2022-08-19T07:09:56;19.50;99.90
10512;DHT22;5304;48.604;2.096;2022-08-19T07:12:40;19.50;99.90
10512;DHT22;5304;48.604;2.096;2022-08-19T07:15:25;19.50;99.90
10512;DHT22;5304;48.604;2.096;2022-08-19T07:18:09;19.60;99.90
10512;DHT22;5304;48.604;2.096;2022-08-19T07:21:06;19.60;99.90
10512;DHT22;5304;48.604;2.096;2022-08-19T07:23:51;19.60;99.90
10512;DHT22;5304;48.604;2.096;2022-08-19T07:26:41;19.70;99.90
10512;DHT22;5304;48.604;2.096;2022-08-19T07:29:27;19.80;99.90
10512;DHT22;5304;48.604;2.096;2022-08-19T07:32:12;19.80;99.90
10512;DHT22;5304;48.604;2.096;2022-08-19T07:34:56;19.90;99.90
10512;DHT22;5304;48.604;2.096;2022-08-19T07:37:41;19.90;99.90
10512;DHT22;5304;48.604;2.096;2022-08-19T07:40:28;19.90;99.90
10512;DHT22;5304;48.604;2.096;2022-08-19T07:43:14;20.00;99.90
10512;DHT22;5304;48.604;2.096;2022-08-19T07:45:59;19.90;99.90
10512;DHT22;5304;48.604;2.096;2022-08-19T07:48:44;19.80;99.90
10512;DHT22;5304;48.604;2.096;2022-08-19T07:51:31;19.80;99.90
10512;DHT22;5304;48.604;2.096;2022-08-19T07:54:17;19.80;99.90
10512;DHT22;5304;48.604;2.096;2022-08-19T07:57:03;19.90;99.90
10512;DHT22;5304;48.604;2.096;2022-08-19T07:59:48;20.00;99.90
10512;DHT22;5304;48.604;2.096;2022-08-19T08:02:32;20.00;99.90
10512;DHT22;5304;48.604;2.096;2022-08-19T08:05:17;20.10;99.90
10512;DHT22;5304;48.604;2.096;2022-08-19T08:08:20;20.20;99.90
10512;DHT22;5304;48.604;2.096;2022-08-19T08:11:23;20.30;99.90
10512;DHT22;5304;48.604;2.096;2022-08-19T08:14:09;20.40;99.90
10512;DHT22;5304;48.604;2.096;2022-08-19T08:16:53;20.50;99.90
10512;DHT22;5304;48.604;2.096;2022-08-19T08:19:39;20.50;99.90
10512;DHT22;5304;48.604;2.096;2022-08-19T08:22:25;20.50;99.90
10512;DHT22;5304;48.604;2.096;2022-08-19T08:25:29;20.60;99.90
10512;DHT22;5304;48.604;2.096;2022-08-19T08:28:16;20.60;99.90
10512;DHT22;5304;48.604;2.096;2022-08-19T08:31:01;20.70;99.90
10512;DHT22;5304;48.604;2.096;2022-08-19T08:33:46;20.80;99.90
10512;DHT22;5304;48.604;2.096;2022-08-19T08:36:31;20.80;99.90
10512;DHT22;5304;48.604;2.096;2022-08-19T08:39:20;20.70;99.90
10512;DHT22;5304;48.604;2.096;2022-08-19T08:42:07;20.80;99.90
10512;DHT22;5304;48.604;2.096;2022-08-19T08:45:06;20.90;99.90
10512;DHT22;5304;48.604;2.096;2022-08-19T08:48:02;20.90;99.90
10512;DHT22;5304;48.604;2.096;2022-08-19T08:50:49;20.90;99.90
10512;DHT22;5304;48.604;2.096;2022-08-19T08:53:36;20.90;99.90
10512;DHT22;5304;48.604;2.096;2022-08-19T08:56:22;21.00;99.90
10512;DHT22;5304;48.604;2.096;2022-08-19T08:59:18;21.20;99.90
10512;DHT22;5304;48.604;2.096;2022-08-19T09:02:04;21.30;99.90
10512;DHT22;5304;48.604;2.096;2022-08-19T09:04:49;21.40;99.90
10512;DHT22;5304;48.604;2.096;2022-08-19T09:10:38;21.80;99.90
10512;DHT22;5304;48.604;2.096;2022-08-19T09:16:23;22.70;99.90
10512;DHT22;5304;48.604;2.096;2022-08-19T09:19:11;23.20;99.90
10512;DHT22;5304;48.604;2.096;2022-08-19T09:21:56;23.30;99.90
10512;DHT22;5304;48.604;2.096;2022-08-19T09:24:40;23.30;99.90
10512;DHT22;5304;48.604;2.096;2022-08-19T09:27:29;23.20;99.90
10512;DHT22;5304;48.604;2.096;2022-08-19T09:30:17;23.10;99.90
10512;DHT22;5304;48.604;2.096;2022-08-19T09:33:02;22.90;99.90
10512;DHT22;5304;48.604;2.096;2022-08-19T09:35:47;23.00;99.90
10512;DHT22;5304;48.604;2.096;2022-08-19T09:38:31;23.20;99.90
10512;DHT22;5304;48.604;2.096;2022-08-19T09:41:19;23.60;99.90
10512;DHT22;5304;48.604;2.096;2022-08-19T09:44:04;24.10;99.90
10512;DHT22;5304;48.604;2.096;2022-08-19T09:46:49;24.10;99.90
10512;DHT22;5304;48.604;2.096;2022-08-19T09:49:35;24.10;99.90
10512;DHT22;5304;48.604;2.096;2022-08-19T09:52:19;24.10;99.90
10512;DHT22;5304;48.604;2.096;2022-08-19T09:55:05;24.30;99.90
10512;DHT22;5304;48.604;2.096;2022-08-19T09:57:53;24.40;99.90
10512;DHT22;5304;48.604;2.096;2022-08-19T10:00:38;24.50;99.90
10512;DHT22;5304;48.604;2.096;2022-08-19T10:03:23;24.50;99.90
10512;DHT22;5304;48.604;2.096;2022-08-19T10:06:08;24.70;99.90
10512;DHT22;5304;48.604;2.096;2022-08-19T10:08:53;24.60;99.90
10512;DHT22;5304;48.604;2.096;2022-08-19T10:11:40;24.40;99.90
10512;DHT22;5304;48.604;2.096;2022-08-19T10:14:25;24.20;99.90
10512;DHT22;5304;48.604;2.096;2022-08-19T10:17:09;24.00;99.90
10512;DHT22;5304;48.604;2.096;2022-08-19T10:19:54;24.00;99.90
10512;DHT22;5304;48.604;2.096;2022-08-19T10:22:39;24.10;99.90
10512;DHT22;5304;48.604;2.096;2022-08-19T10:25:23;24.30;99.90
10512;DHT22;5304;48.604;2.096;2022-08-19T10:28:09;24.50;99.90
10512;DHT22;5304;48.604;2.096;2022-08-19T10:30:55;24.80;99.90
10512;DHT22;5304;48.604;2.096;2022-08-19T10:33:40;25.00;99.90
10512;DHT22;5304;48.604;2.096;2022-08-19T10:36:34;25.30;99.90
10512;DHT22;5304;48.604;2.096;2022-08-19T10:39:19;25.20;99.90
10512;DHT22;5304;48.604;2.096;2022-08-19T10:42:07;25.20;99.90
10512;DHT22;5304;48.604;2.096;2022-08-19T10:44:51;25.20;99.90
10512;DHT22;5304;48.604;2.096;2022-08-19T10:47:36;25.20;99.90
10512;DHT22;5304;48.604;2.096;2022-08-19T10:50:20;25.10;99.90
10512;DHT22;5304;48.604;2.096;2022-08-19T10:53:24;25.20;99.90
10512;DHT22;5304;48.604;2.096;2022-08-19T10:56:09;25.40;99.90
10512;DHT22;5304;48.604;2.096;2022-08-19T10:59:13;25.60;99.90
10512;DHT22;5304;48.604;2.096;2022-08-19T11:02:02;25.50;99.90
10512;DHT22;5304;48.604;2.096;2022-08-19T11:04:47;25.50;99.90
10512;DHT22;5304;48.604;2.096;2022-08-19T11:07:34;25.40;99.90
10512;DHT22;5304;48.604;2.096;2022-08-19T11:10:18;25.40;99.90
10512;DHT22;5304;48.604;2.096;2022-08-19T11:13:03;25.40;99.90
10512;DHT22;5304;48.604;2.096;2022-08-19T11:15:47;25.40;99.90
10512;DHT22;5304;48.604;2.096;2022-08-19T11:18:32;25.30;99.90
10512;DHT22;5304;48.604;2.096;2022-08-19T11:21:21;25.30;99.90
10512;DHT22;5304;48.604;2.096;2022-08-19T11:24:09;25.50;99.90
10512;DHT22;5304;48.604;2.096;2022-08-19T11:26:58;25.70;99.90
10512;DHT22;5304;48.604;2.096;2022-08-19T11:29:45;25.90;99.90
10512;DHT22;5304;48.604;2.096;2022-08-19T11:32:29;26.30;99.90
10512;DHT22;5304;48.604;2.096;2022-08-19T11:35:14;26.60;99.90
10512;DHT22;5304;48.604;2.096;2022-08-19T11:37:58;26.70;99.90
10512;DHT22;5304;48.604;2.096;2022-08-19T11:40:53;26.50;99.90
10512;DHT22;5304;48.604;2.096;2022-08-19T11:43:38;26.40;99.90
10512;DHT22;5304;48.604;2.096;2022-08-19T11:46:25;26.40;99.90
10512;DHT22;5304;48.604;2.096;2022-08-19T11:49:09;26.60;99.90
10512;DHT22;5304;48.604;2.096;2022-08-19T11:51:54;26.70;99.90
10512;DHT22;5304;48.604;2.096;2022-08-19T11:54:39;26.80;99.90
10512;DHT22;5304;48.604;2.096;2022-08-19T11:57:23;26.80;99.90
10512;DHT22;5304;48.604;2.096;2022-08-19T12:00:08;27.10;99.90
10512;DHT22;5304;48.604;2.096;2022-08-19T12:02:55;27.10;99.90
10512;DHT22;5304;48.604;2.096;2022-08-19T12:05:40;27.20;99.90
10512;DHT22;5304;48.604;2.096;2022-08-19T12:08:25;26.90;99.90
10512;DHT22;5304;48.604;2.096;2022-08-19T12:11:11;26.90;99.90
10512;DHT22;5304;48.604;2.096;2022-08-19T12:13:55;27.40;99.90
10512;DHT22;5304;48.604;2.096;2022-08-19T12:16:44;27.20;99.90
10512;DHT22;5304;48.604;2.096;2022-08-19T12:19:30;26.90;99.90
10512;DHT22;5304;48.604;2.096;2022-08-19T12:22:15;26.80;99.90
10512;DHT22;5304;48.604;2.096;2022-08-19T12:24:59;27.10;99.90
10512;DHT22;5304;48.604;2.096;2022-08-19T12:27:44;27.30;99.90
10512;DHT22;5304;48.604;2.096;2022-08-19T12:30:29;27.10;99.90
10512;DHT22;5304;48.604;2.096;2022-08-19T12:33:14;26.80;99.90
10512;DHT22;5304;48.604;2.096;2022-08-19T12:36:04;26.60;99.90
10512;DHT22;5304;48.604;2.096;2022-08-19T12:38:51;26.50;99.90
10512;DHT22;5304;48.604;2.096;2022-08-19T12:41:36;26.30;99.90
10512;DHT22;5304;48.604;2.096;2022-08-19T12:44:22;26.10;99.90
10512;DHT22;5304;48.604;2.096;2022-08-19T12:47:09;25.80;99.90
10512;DHT22;5304;48.604;2.096;2022-08-19T12:49:54;25.60;99.90
10512;DHT22;5304;48.604;2.096;2022-08-19T12:52:39;25.50;99.90
10512;DHT22;5304;48.604;2.096;2022-08-19T12:55:26;25.40;99.90
10512;DHT22;5304;48.604;2.096;2022-08-19T12:58:12;25.30;99.90
10512;DHT22;5304;48.604;2.096;2022-08-19T13:00:57;25.50;99.90
10512;DHT22;5304;48.604;2.096;2022-08-19T13:03:42;25.60;99.90
10512;DHT22;5304;48.604;2.096;2022-08-19T13:06:27;25.60;99.90
10512;DHT22;5304;48.604;2.096;2022-08-19T13:09:11;25.50;99.90
10512;DHT22;5304;48.604;2.096;2022-08-19T13:11:56;25.40;99.90
10512;DHT22;5304;48.604;2.096;2022-08-19T13:14:41;25.30;99.90
10512;DHT22;5304;48.604;2.096;2022-08-19T13:17:25;25.30;99.90
10512;DHT22;5304;48.604;2.096;2022-08-19T13:20:11;25.20;99.90
10512;DHT22;5304;48.604;2.096;2022-08-19T13:22:55;25.10;99.90
10512;DHT22;5304;48.604;2.096;2022-08-19T13:25:41;25.00;99.90
10512;DHT22;5304;48.604;2.096;2022-08-19T13:28:26;24.90;99.90
10512;DHT22;5304;48.604;2.096;2022-08-19T13:31:11;24.80;99.90
10512;DHT22;5304;48.604;2.096;2022-08-19T13:34:15;24.60;99.90
10512;DHT22;5304;48.604;2.096;2022-08-19T13:37:00;24.50;99.90
10512;DHT22;5304;48.604;2.096;2022-08-19T13:39:49;24.40;99.90
10512;DHT22;5304;48.604;2.096;2022-08-19T13:42:34;24.40;99.90
10512;DHT22;5304;48.604;2.096;2022-08-19T13:45:21;24.30;99.90
10512;DHT22;5304;48.604;2.096;2022-08-19T13:48:07;24.20;99.90
10512;DHT22;5304;48.604;2.096;2022-08-19T13:50:52;24.10;99.90
10512;DHT22;5304;48.604;2.096;2022-08-19T13:53:39;24.00;99.90
10512;DHT22;5304;48.604;2.096;2022-08-19T13:56:23;23.90;99.90
10512;DHT22;5304;48.604;2.096;2022-08-19T13:59:08;23.80;99.90
10512;DHT22;5304;48.604;2.096;2022-08-19T14:01:57;23.80;99.90
10512;DHT22;5304;48.604;2.096;2022-08-19T14:04:41;23.80;99.90
10512;DHT22;5304;48.604;2.096;2022-08-19T14:07:26;23.60;99.90
10512;DHT22;5304;48.604;2.096;2022-08-19T14:10:12;23.60;99.90
10512;DHT22;5304;48.604;2.096;2022-08-19T14:12:59;23.60;99.90
10512;DHT22;5304;48.604;2.096;2022-08-19T14:15:44;23.60;99.90
10512;DHT22;5304;48.604;2.096;2022-08-19T14:18:28;23.60;99.90
10512;DHT22;5304;48.604;2.096;2022-08-19T14:21:19;23.70;99.90
10512;DHT22;5304;48.604;2.096;2022-08-19T14:24:04;23.70;99.90
10512;DHT22;5304;48.604;2.096;2022-08-19T14:26:49;23.80;99.90
10512;DHT22;5304;48.604;2.096;2022-08-19T14:29:34;23.80;99.90
10512;DHT22;5304;48.604;2.096;2022-08-19T14:32:19;23.90;99.90
10512;DHT22;5304;48.604;2.096;2022-08-19T14:35:04;24.00;99.90
10512;DHT22;5304;48.604;2.096;2022-08-19T14:37:50;24.10;99.90
10512;DHT22;5304;48.604;2.096;2022-08-19T14:40:35;24.10;99.90
10512;DHT22;5304;48.604;2.096;2022-08-19T14:43:19;24.10;99.90
10512;DHT22;5304;48.604;2.096;2022-08-19T14:46:04;24.20;99.90
10512;DHT22;5304;48.604;2.096;2022-08-19T14:48:49;24.20;99.90
10512;DHT22;5304;48.604;2.096;2022-08-19T14:51:34;24.20;99.90
10512;DHT22;5304;48.604;2.096;2022-08-19T14:54:19;24.10;99.90
10512;DHT22;5304;48.604;2.096;2022-08-19T14:57:04;24.10;99.90
10512;DHT22;5304;48.604;2.096;2022-08-19T14:59:48;24.10;99.90
10512;DHT22;5304;48.604;2.096;2022-08-19T15:02:33;24.10;99.90
10512;DHT22;5304;48.604;2.096;2022-08-19T15:05:17;24.10;99.90
10512;DHT22;5304;48.604;2.096;2022-08-19T15:08:03;24.20;99.90
10512;DHT22;5304;48.604;2.096;2022-08-19T15:10:48;24.30;99.90
10512;DHT22;5304;48.604;2.096;2022-08-19T15:13:32;24.30;99.90
10512;DHT22;5304;48.604;2.096;2022-08-19T15:16:18;24.30;99.90
10512;DHT22;5304;48.604;2.096;2022-08-19T15:19:03;24.40;99.90
10512;DHT22;5304;48.604;2.096;2022-08-19T15:21:47;24.40;99.90
10512;DHT22;5304;48.604;2.096;2022-08-19T15:24:32;24.40;99.90
10512;DHT22;5304;48.604;2.096;2022-08-19T15:27:19;24.40;99.90
10512;DHT22;5304;48.604;2.096;2022-08-19T15:30:04;24.50;99.90
10512;DHT22;5304;48.604;2.096;2022-08-19T15:32:49;24.60;99.90
10512;DHT22;5304;48.604;2.096;2022-08-19T15:35:34;24.50;99.90
10512;DHT22;5304;48.604;2.096;2022-08-19T15:38:19;24.50;99.90
10512;DHT22;5304;48.604;2.096;2022-08-19T15:41:05;24.50;99.90
10512;DHT22;5304;48.604;2.096;2022-08-19T15:44:13;24.40;99.90
10512;DHT22;5304;48.604;2.096;2022-08-19T15:46:57;24.30;99.90
10512;DHT22;5304;48.604;2.096;2022-08-19T15:49:42;24.20;99.90
10512;DHT22;5304;48.604;2.096;2022-08-19T15:52:27;24.10;99.90
10512;DHT22;5304;48.604;2.096;2022-08-19T15:55:11;24.00;99.90
10512;DHT22;5304;48.604;2.096;2022-08-19T15:57:55;24.00;99.90
10512;DHT22;5304;48.604;2.096;2022-08-19T16:01:04;23.80;99.90
10512;DHT22;5304;48.604;2.096;2022-08-19T16:04:07;23.70;99.90
10512;DHT22;5304;48.604;2.096;2022-08-19T16:07:11;23.40;99.90
10512;DHT22;5304;48.604;2.096;2022-08-19T16:09:55;23.00;99.90
10512;DHT22;5304;48.604;2.096;2022-08-19T16:12:40;22.70;99.90
10512;DHT22;5304;48.604;2.096;2022-08-19T16:15:27;22.60;99.90
10512;DHT22;5304;48.604;2.096;2022-08-19T16:18:13;22.50;99.90
10512;DHT22;5304;48.604;2.096;2022-08-19T16:20:58;22.40;99.90
10512;DHT22;5304;48.604;2.096;2022-08-19T16:23:47;22.30;99.90
10512;DHT22;5304;48.604;2.096;2022-08-19T16:26:33;22.30;99.90
10512;DHT22;5304;48.604;2.096;2022-08-19T16:29:18;22.30;99.90
10512;DHT22;5304;48.604;2.096;2022-08-19T16:32:04;22.40;99.90
10512;DHT22;5304;48.604;2.096;2022-08-19T16:34:49;22.40;99.90
10512;DHT22;5304;48.604;2.096;2022-08-19T16:37:34;22.40;99.90
10512;DHT22;5304;48.604;2.096;2022-08-19T16:40:18;22.40;99.90
10512;DHT22;5304;48.604;2.096;2022-08-19T16:43:04;22.40;99.90
10512;DHT22;5304;48.604;2.096;2022-08-19T16:45:49;22.30;99.90
10512;DHT22;5304;48.604;2.096;2022-08-19T16:48:37;22.20;99.90
10512;DHT22;5304;48.604;2.096;2022-08-19T16:51:26;22.20;99.90
10512;DHT22;5304;48.604;2.096;2022-08-19T16:54:11;22.20;99.90
10512;DHT22;5304;48.604;2.096;2022-08-19T16:56:57;22.10;99.90
10512;DHT22;5304;48.604;2.096;2022-08-19T16:59:42;22.10;99.90
10512;DHT22;5304;48.604;2.096;2022-08-19T17:02:27;22.10;99.90
10512;DHT22;5304;48.604;2.096;2022-08-19T17:05:12;22.10;99.90
10512;DHT22;5304;48.604;2.096;2022-08-19T17:07:58;22.10;99.90
10512;DHT22;5304;48.604;2.096;2022-08-19T17:10:43;22.10;99.90
10512;DHT22;5304;48.604;2.096;2022-08-19T17:13:28;22.10;99.90
10512;DHT22;5304;48.604;2.096;2022-08-19T17:16:14;22.10;99.90
10512;DHT22;5304;48.604;2.096;2022-08-19T17:19:02;22.10;99.90
10512;DHT22;5304;48.604;2.096;2022-08-19T17:21:47;21.90;99.90
10512;DHT22;5304;48.604;2.096;2022-08-19T17:24:32;21.90;99.90
10512;DHT22;5304;48.604;2.096;2022-08-19T17:27:17;21.90;99.90
10512;DHT22;5304;48.604;2.096;2022-08-19T17:30:04;21.80;99.90
10512;DHT22;5304;48.604;2.096;2022-08-19T17:32:50;21.80;99.90
10512;DHT22;5304;48.604;2.096;2022-08-19T17:35:35;21.90;99.90
10512;DHT22;5304;48.604;2.096;2022-08-19T17:38:21;21.90;99.90
10512;DHT22;5304;48.604;2.096;2022-08-19T17:41:06;21.90;99.90
10512;DHT22;5304;48.604;2.096;2022-08-19T17:43:51;21.80;99.90
10512;DHT22;5304;48.604;2.096;2022-08-19T17:46:36;21.80;99.90
10512;DHT22;5304;48.604;2.096;2022-08-19T17:49:20;21.70;99.90
10512;DHT22;5304;48.604;2.096;2022-08-19T17:52:05;21.60;99.90
10512;DHT22;5304;48.604;2.096;2022-08-19T17:54:49;21.50;99.90
10512;DHT22;5304;48.604;2.096;2022-08-19T17:57:34;21.50;99.90
10512;DHT22;5304;48.604;2.096;2022-08-19T18:00:19;21.40;99.90
10512;DHT22;5304;48.604;2.096;2022-08-19T18:03:04;21.30;99.90
10512;DHT22;5304;48.604;2.096;2022-08-19T18:05:48;21.20;99.90
10512;DHT22;5304;48.604;2.096;2022-08-19T18:08:34;21.20;99.90
10512;DHT22;5304;48.604;2.096;2022-08-19T18:11:22;21.10;99.90